Date,TemperatureHighF,TemperatureAvgF,TemperatureLowF,DewpointHighF,DewpointAvgF,DewpointLowF,HumidityHigh,HumidityAvg,HumidityLow,PressureMaxIn,PressureMinIn,WindSpeedMaxMPH,WindSpeedAvgMPH,GustSpeedMaxMPH,PrecipitationSumIn
2013-1-1,47,42,37,38,31,19,88,66,37,30.15,30.00,13,4,13,0.18
2013-1-2,50,39,35,38,32,29,89,78,52,30.30,30.06,7,3,10,0.07
2013-1-3,42,34,31,28,21,18,77,60,51,30.34,30.25,8,3,9,0.00
2013-1-4,49,36,28,21,17,14,58,46,27,30.35,30.25,16,7,16,0.00
2013-1-5,52,40,29,28,19,15,67,45,23,30.46,30.30,8,4,8,0.00
2013-1-6,56,43,34,34,28,24,81,57,35,30.31,30.14,13,4,16,0.02
2013-1-7,59,40,27,31,26,19,76,59,30,30.53,30.26,8,2,10,0.00
2013-1-8,53,38,27,35,29,19,84,70,48,30.55,30.46,10,3,11,0.00
2013-1-9,41,39,38,34,32,31,79,76,74,30.49,30.46,4,2,4,0.00
2013-1-10,64,49,36,43,34,27,86,60,28,30.66,30.49,7,2,7,0.00
2013-1-11,43,40,38,41,35,28,94,82,64,30.55,30.22,8,3,8,0.04
2013-1-12,72,52,38,56,46,37,95,83,56,30.26,30.20,5,2,5,0.00
2013-1-13,73,60,49,58,53,47,91,80,59,30.22,30.12,12,4,12,0.00
2013-1-14,62,56,42,58,52,38,88,85,78,30.34,30.13,14,6,14,0.46
2013-1-15,41,38,37,38,35,33,90,88,86,30.40,30.21,8,4,8,0.96
2013-1-16,44,39,36,40,36,32,90,86,84,30.22,30.02,11,3,14,0.48
2013-1-17,47,42,32,43,39,28,90,88,84,30.23,30.08,12,2,15,0.76
2013-1-18,53,37,27,38,24,15,88,62,28,30.59,30.23,6,2,8,0.50
2013-1-19,55,38,26,29,21,16,68,53,27,30.55,30.27,14,6,17,0.00
2013-1-20,60,42,34,30,23,19,60,48,23,30.17,30.03,19,5,19,0.00
2013-1-21,57,41,24,30,16,-1,74,40,21,30.18,29.92,21,7,34,0.00
2013-1-22,34,25,16,5,-5,-12,42,27,20,30.36,30.04,18,6,21,0.00
2013-1-23,38,24,9,12,0,-12,57,36,20,30.43,30.15,20,5,20,0.00
2013-1-24,38,25,12,14,3,-9,72,41,20,30.61,30.09,14,4,20,0.00
2013-1-25,23,18,11,15,6,-3,78,61,36,30.59,30.15,15,4,15,0.00
2013-1-26,47,30,17,29,18,10,79,62,33,30.51,30.14,11,3,14,0.06
2013-1-27,38,29,22,21,18,14,74,64,49,30.68,30.50,8,3,8,0.00
2013-1-28,59,42,31,42,32,20,82,71,46,30.56,30.25,19,8,19,0.12
2013-1-29,77,58,44,52,44,37,78,62,37,30.26,30.12,16,7,17,0.00
2013-1-30,68,64,56,59,56,51,84,74,67,30.12,29.44,29,12,46,0.74
2013-1-31,55,43,28,50,23,8,86,49,22,30.05,29.46,37,15,39,0.26
2013-2-1,48,30,14,24,5,-8,73,36,20,30.48,29.89,25,9,36,0.00
2013-2-2,41,25,11,21,9,-3,72,53,23,30.46,30.09,17,4,19,0.00
2013-2-3,51,35,23,27,19,13,75,54,25,30.09,29.93,24,6,24,0.00
2013-2-4,39,31,21,20,14,8,63,49,33,30.21,30.03,14,5,15,0.00
2013-2-5,68,48,34,36,30,20,64,50,27,30.04,29.95,24,9,30,0.00
2013-2-6,78,48,30,32,26,16,76,48,12,30.40,30.04,14,4,15,0.00
2013-2-7,47,36,27,29,25,20,85,65,43,30.48,30.22,10,4,11,0.15
2013-2-8,70,44,32,46,32,21,90,66,28,30.22,29.89,21,6,25,0.34
2013-2-9,72,40,24,21,15,6,64,40,11,30.46,30.08,14,4,17,0.00
2013-2-10,57,36,17,31,16,7,82,47,21,30.58,30.31,13,3,13,0.04
2013-2-11,55,46,36,50,41,31,92,83,67,30.31,29.95,20,8,21,0.07
2013-2-12,70,51,38,40,23,16,67,35,14,30.13,29.98,21,7,24,0.00
2013-2-13,46,41,30,38,33,25,89,72,45,30.04,29.75,12,3,12,0.05
2013-2-14,68,43,24,40,26,21,89,58,17,30.14,29.90,13,4,14,0.01
2013-2-15,74,47,26,36,28,22,87,54,15,30.17,29.99,12,4,18,0.00
2013-2-16,41,33,19,34,28,16,87,82,70,30.09,29.95,3,0,6,0.11
2013-2-17,54,26,9,27,8,-6,81,51,19,30.33,29.98,0,0,0,0.17
2013-2-18,63,35,5,22,11,-4,68,40,18,30.47,30.28,8,3,12,0.01
2013-2-19,56,38,31,46,28,9,88,67,28,30.28,29.89,13,5,21,0.08
2013-2-20,50,39,28,14,9,4,46,30,21,30.25,30.01,13,5,24,0.00
2013-2-21,75,40,22,24,13,8,56,36,12,30.40,30.22,9,2,14,0.00
2013-2-22,47,35,29,26,21,14,74,56,41,30.46,30.25,6,2,8,0.00
2013-2-23,63,40,32,42,34,26,90,78,44,30.26,29.92,4,1,8,0.01
2013-2-24,74,47,32,44,26,16,91,55,12,30.19,29.89,12,2,23,0.01
2013-2-25,57,35,23,22,17,14,74,52,23,30.32,30.18,6,2,10,0.00
2013-2-26,25,25,23,17,16,15,71,69,69,30.29,30.27,1,0,2,0.00
2013-2-27,25,25,25,16,16,16,69,69,69,30.27,30.27,0,0,2,0.00
2013-2-28,25,25,25,16,16,16,69,69,69,30.27,30.27,0,0,2,0.00
2013-3-1,25,25,25,16,16,16,69,69,69,30.27,30.27,0,0,2,0.00
2013-3-2,25,25,25,16,16,16,69,69,69,30.27,30.27,0,0,2,0.00
2013-3-3,25,25,25,16,16,16,69,69,69,30.27,30.27,0,0,2,0.00
2013-3-4,25,25,25,16,16,16,69,69,69,30.27,30.27,0,0,2,0.00
2013-3-5,25,25,25,16,16,16,69,69,69,30.27,30.27,0,0,2,0.00
2013-3-6,25,25,25,16,16,16,69,69,69,30.27,30.27,0,0,2,0.00
2013-3-7,25,25,25,16,16,16,69,69,69,30.27,30.27,0,0,2,0.00
2013-3-8,25,25,25,16,16,16,69,69,69,30.27,30.27,0,0,2,0.00
2013-3-9,59,26,25,58,17,16,99,68,48,30.27,29.92,5,0,7,1.69
2013-3-10,80,51,27,31,21,16,69,38,12,29.95,29.83,8,2,15,0.00
2013-3-11,68,53,39,49,38,22,71,59,36,29.86,29.55,11,4,16,0.00
2013-3-12,77,59,38,59,45,26,99,66,19,29.60,29.36,13,6,21,0.69
2013-3-13,62,41,28,34,23,12,73,51,22,29.75,29.59,14,4,29,0.00
2013-3-14,66,44,26,19,14,8,55,32,16,29.83,29.70,14,5,21,0.00
2013-3-15,62,40,27,34,18,10,55,42,23,29.77,29.47,13,4,21,0.00
2013-3-16,85,70,43,53,46,33,92,45,28,29.49,29.19,12,6,21,0.24
2013-3-17,51,39,35,49,37,32,96,92,85,29.86,29.48,8,3,14,0.17
2013-3-18,37,33,32,34,31,29,92,90,87,29.88,29.53,6,2,12,0.33
2013-3-19,76,48,31,48,25,5,95,53,12,29.65,29.41,22,6,36,0.05
2013-3-20,67,46,29,18,11,0,46,25,15,29.69,29.39,14,4,27,0.00
2013-3-21,55,37,23,32,14,0,85,43,19,29.59,29.39,14,3,24,0.02
2013-3-22,64,37,20,18,10,5,57,36,17,29.66,29.55,13,4,21,0.00
2013-3-23,73,44,24,26,18,9,64,39,12,29.69,29.53,10,2,17,0.00
2013-3-24,41,37,32,25,22,19,65,52,47,29.59,29.55,5,3,11,0.00
2013-4-1,73,55,40,42,33,26,56,44,32,29.63,29.45,11,5,15,0.01
2013-4-2,68,45,27,25,18,11,66,38,13,29.79,29.65,14,4,24,0.05
2013-4-3,77,46,23,24,15,7,68,33,12,29.99,29.79,11,2,19,0.00
2013-4-4,63,38,28,30,18,9,88,51,17,30.04,29.65,8,2,14,0.58
2013-4-5,83,50,34,61,37,29,93,68,15,29.66,29.51,8,2,14,0.12
2013-4-6,79,51,33,34,24,14,79,40,11,29.93,29.67,8,2,14,0.00
2013-4-7,82,56,32,44,34,23,71,46,22,29.89,29.68,17,5,24,0.00
2013-4-8,90,69,52,52,46,40,72,48,22,29.76,29.64,11,5,18,0.00
2013-4-9,94,75,57,60,51,48,72,46,24,29.79,29.65,13,5,20,0.00
2013-4-10,99,78,59,61,54,51,76,48,23,29.69,29.53,14,5,23,0.00
2013-4-11,93,75,62,61,56,54,76,55,31,29.57,29.40,14,6,23,0.00
2013-4-12,90,72,57,67,55,36,93,61,22,29.41,29.23,17,6,24,0.00
2013-4-13,83,64,41,44,34,22,77,37,14,29.62,29.38,13,4,21,0.00
2013-4-14,92,68,42,45,35,25,66,34,13,29.75,29.62,8,2,12,0.00
2013-4-15,78,59,53,69,53,41,94,81,45,29.89,29.69,8,2,12,0.00
2013-4-16,86,66,56,61,55,52,89,72,42,29.96,29.81,7,2,13,0.00
2013-4-17,98,74,56,63,58,52,90,61,26,29.85,29.74,8,2,11,0.00
2013-4-18,80,68,60,62,58,54,92,72,43,29.83,29.66,10,3,17,0.06
2013-4-19,78,69,63,64,60,55,84,73,59,29.66,29.31,12,5,21,0.00
2013-4-20,70,56,40,49,30,22,83,41,17,29.93,29.44,13,2,23,0.00
2013-4-21,66,49,36,33,30,25,72,49,27,30.17,29.93,9,2,15,0.00
2013-4-22,66,48,30,39,32,21,85,56,26,30.15,29.94,9,3,17,0.00
2013-4-23,76,56,44,49,43,38,85,62,36,29.97,29.74,6,2,10,0.01
2013-4-24,78,63,45,55,50,41,90,65,40,29.77,29.54,16,5,29,0.00
2013-4-25,74,58,42,53,36,23,74,46,18,29.92,29.64,8,2,17,0.00
2013-4-26,75,55,34,42,34,28,81,50,20,30.08,29.93,26,2,53,0.00
2013-4-27,77,60,46,48,43,40,85,56,27,30.02,29.90,7,1,10,0.00
2013-4-28,62,55,51,51,47,42,88,74,64,29.91,29.75,4,1,8,0.01
2013-4-29,75,57,51,58,52,47,93,82,55,29.75,29.63,4,1,7,0.00
2013-4-30,71,59,51,56,52,48,92,79,58,29.88,29.69,8,2,12,0.00
2013-5-1,77,61,52,52,48,38,90,66,26,30.01,29.86,8,2,14,0.00
2013-5-2,73,58,48,52,45,40,84,64,42,30.03,29.93,5,2,11,0.00
2013-5-3,75,55,39,52,43,36,90,67,42,29.97,29.85,9,2,13,0.00
2013-5-4,62,51,40,49,43,37,88,73,59,29.91,29.77,8,2,12,0.00
2013-5-5,69,50,38,49,40,34,86,71,47,29.81,29.72,8,3,17,0.00
2013-5-6,60,56,51,55,52,46,91,87,72,29.74,29.51,8,3,17,0.01
2013-5-7,76,60,51,62,54,48,90,81,48,29.59,29.50,8,2,14,0.00
2013-5-8,61,55,50,56,51,47,90,85,74,29.65,29.56,3,1,6,0.00
2013-5-9,84,65,47,61,52,44,90,67,37,29.68,29.59,10,2,14,0.00
2013-5-10,88,72,52,62,56,48,86,59,36,29.68,29.55,9,2,15,0.00
2013-5-11,80,68,61,63,58,54,88,70,49,29.57,29.41,12,3,17,0.63
2013-5-12,72,61,42,58,42,28,89,55,21,29.70,29.43,8,2,17,0.00
2013-5-13,69,52,36,42,32,24,84,53,22,29.82,29.69,8,1,16,0.00
2013-5-14,75,55,32,42,36,28,87,54,22,29.87,29.67,11,2,16,0.00
2013-5-15,89,72,51,64,55,40,70,55,41,29.68,29.46,11,4,18,0.00
2013-5-16,89,77,62,62,58,53,75,53,37,29.62,29.50,11,3,19,0.00
2013-5-17,94,73,60,64,59,53,85,62,35,29.76,29.60,6,1,9,0.01
2013-5-18,66,62,58,62,58,55,91,87,80,29.85,29.75,4,1,10,0.96
2013-5-19,78,66,61,67,61,58,91,85,66,29.82,29.71,4,1,7,0.43
2013-5-20,82,68,64,67,63,60,91,85,61,29.76,29.70,5,1,8,0.00
2013-5-21,94,79,66,70,66,62,88,66,46,29.68,29.56,6,2,10,0.00
2013-5-22,72,69,65,65,64,61,87,84,78,29.62,29.56,5,3,13,0.21
2013-5-23,84,71,61,66,62,55,89,75,54,29.59,29.43,7,2,11,0.24
2013-5-24,72,61,45,56,47,34,85,62,33,29.82,29.44,8,2,17,0.00
2013-5-25,78,55,35,42,35,19,86,52,13,29.89,29.75,8,1,14,0.00
2013-5-26,83,61,39,50,40,33,84,53,18,29.90,29.79,5,1,11,0.02
2013-5-27,82,63,44,57,48,38,85,61,34,29.92,29.81,7,1,9,0.00
2013-5-28,89,71,52,66,58,48,87,66,42,29.84,29.74,8,2,15,0.00
2013-5-29,92,77,65,68,62,59,82,61,42,29.84,29.77,10,3,14,0.00
2013-5-30,92,77,63,66,62,57,82,61,39,29.88,29.80,8,3,14,0.00
2013-5-31,92,78,63,67,61,56,78,58,38,29.84,29.73,9,3,14,0.00
2013-6-1,92,79,66,68,63,60,84,60,42,29.74,29.63,11,4,17,0.00
2013-6-2,89,73,66,72,64,60,90,74,48,29.65,29.55,9,2,18,0.61
2013-6-3,91,74,66,70,65,62,90,74,41,29.62,29.48,3,0,8,0.01
2013-6-4,88,71,57,63,57,51,89,65,35,29.77,29.61,5,1,10,0.01
2013-6-5,86,70,54,62,57,49,86,64,42,29.81,29.69,4,1,8,0.00
2013-6-6,76,65,60,66,59,52,90,80,67,29.70,29.46,4,1,14,0.00
2013-6-7,73,68,65,67,63,62,90,85,76,29.48,29.25,5,1,11,0.50
2013-6-8,91,73,63,64,60,58,87,68,36,29.75,29.44,5,1,8,0.18
2013-6-9,94,76,61,74,64,56,86,68,44,29.81,29.70,6,1,10,0.15
2013-6-10,86,73,66,70,66,60,87,79,57,29.75,29.49,14,3,20,0.60
2013-6-11,87,75,66,65,62,58,87,66,43,29.58,29.50,11,3,18,0.04
2013-6-12,95,81,69,70,63,58,69,55,44,29.59,29.54,8,4,14,0.00
2013-6-13,91,75,63,69,66,57,87,74,46,29.49,29.21,21,4,34,0.39
2013-6-14,87,71,56,60,55,50,83,60,36,29.66,29.34,5,1,12,0.00
2013-6-15,88,74,55,61,56,50,86,57,34,29.75,29.66,7,2,12,0.00
2013-6-16,90,76,63,68,62,55,78,62,43,29.71,29.61,8,3,14,0.00
2013-6-17,87,72,67,69,65,62,88,79,54,29.66,29.62,7,2,10,0.35
2013-6-18,78,72,64,68,63,59,84,75,67,29.56,29.45,6,1,10,0.07
2013-6-19,84,70,60,64,61,56,87,73,51,29.79,29.55,3,1,5,0.00
2013-6-20,89,73,62,64,59,54,86,65,41,29.92,29.80,3,1,5,0.00
2013-6-21,90,72,56,63,56,51,85,60,32,29.94,29.87,2,1,4,0.00
2013-6-22,91,71,57,68,64,53,87,80,45,29.91,29.79,4,1,10,0.43
2013-6-23,93,77,68,70,66,64,87,72,46,29.85,29.75,6,1,10,0.07
2013-6-24,94,80,68,71,67,63,84,66,44,29.83,29.71,5,2,11,0.00
2013-6-25,94,80,69,71,67,64,86,66,42,29.74,29.61,8,2,13,0.00
2013-6-26,96,77,68,72,66,61,87,71,44,29.63,29.50,7,2,19,0.13
2013-6-27,85,74,66,69,65,61,86,74,56,29.56,29.35,11,3,19,0.02
2013-6-28,93,80,71,71,65,62,75,61,43,29.37,29.19,10,4,17,0.05
2013-6-29,91,78,66,67,63,59,83,62,36,29.37,29.23,7,2,8,0.00
2013-6-30,89,75,68,72,66,63,87,76,50,29.53,29.36,8,1,11,1.57
2013-7-1,90,75,68,71,66,64,87,75,48,29.64,29.50,5,1,10,0.15
2013-7-2,81,73,71,71,67,65,84,80,66,29.84,29.63,5,1,11,0.74
2013-7-3,90,75,70,72,67,64,86,77,54,29.89,29.80,7,2,10,0.57
2013-7-4,93,78,70,70,67,64,85,70,46,29.93,29.83,9,2,12,0.04
2013-7-5,92,79,69,71,68,65,85,70,49,29.92,29.81,7,2,11,0.00
2013-7-6,92,79,70,70,67,64,84,68,45,29.89,29.77,8,2,14,0.09
2013-7-7,91,78,70,71,67,63,85,70,51,29.82,29.70,9,3,17,0.00
2013-7-8,93,78,69,69,66,63,85,67,43,29.81,29.74,5,2,11,0.19
2013-7-9,95,81,70,72,68,64,84,67,46,29.79,29.69,5,1,8,0.00
2013-7-10,94,79,71,74,68,66,84,71,49,29.72,29.58,5,2,13,0.22
2013-7-11,89,74,70,72,66,64,84,79,53,29.62,29.54,7,2,12,2.56
2013-7-12,72,68,65,65,62,61,86,81,71,29.70,29.53,4,1,12,0.19
2013-7-13,89,75,65,71,65,61,85,73,54,29.88,29.69,4,1,8,0.08
2013-7-14,96,79,68,73,67,63,84,68,44,30.00,29.88,4,1,6,0.00
2013-7-15,103,82,67,74,68,62,84,64,36,29.99,29.89,4,1,7,0.00
2013-7-16,103,85,70,75,69,63,82,62,37,29.92,29.84,2,0,6,0.00
2013-7-17,102,85,73,77,71,67,85,66,41,29.89,29.77,4,0,6,0.00
2013-7-18,105,86,70,78,70,65,85,63,36,29.81,29.69,3,0,5,0.01
2013-7-19,97,84,72,74,70,66,85,65,45,29.73,29.60,6,2,10,0.00
2013-7-20,93,79,73,74,67,63,78,68,48,29.63,29.53,6,3,11,0.01
2013-7-21,96,79,71,73,68,64,84,70,45,29.62,29.56,5,2,11,0.81
2013-7-22,92,77,69,72,67,64,85,72,50,29.62,29.45,5,1,9,0.01
2013-7-23,93,80,72,70,66,62,82,65,45,29.46,29.36,7,2,11,0.00
2013-7-24,99,79,65,72,65,58,84,65,40,29.56,29.37,5,1,11,0.51
2013-7-25,91,72,63,65,60,56,85,67,42,29.70,29.53,5,1,9,0.01
2013-7-26,90,74,59,65,60,54,84,63,39,29.76,29.68,4,1,8,0.00
2013-7-27,82,72,64,66,62,58,83,72,56,29.71,29.59,8,1,13,0.00
2013-7-28,91,75,67,70,64,59,84,70,44,29.66,29.56,6,2,12,0.07
2013-7-29,92,76,64,64,60,56,85,62,34,29.77,29.64,6,1,9,0.00
2013-7-30,92,73,57,65,59,51,82,64,40,29.88,29.80,2,0,4,0.00
2013-7-31,86,71,62,66,62,57,85,74,53,29.81,29.66,3,0,4,0.11
2013-8-1,91,75,67,69,65,61,84,71,46,29.66,29.49,5,1,8,0.12
2013-8-2,91,77,62,66,61,58,85,61,35,29.66,29.55,6,1,8,0.07
2013-8-3,90,74,64,66,62,56,77,67,42,29.65,29.57,3,0,4,0.00
2013-8-4,94,76,62,66,60,54,84,61,32,29.71,29.57,4,0,10,0.00
2013-8-5,89,72,57,63,57,51,83,63,36,29.77,29.67,4,1,9,0.00
2013-8-6,88,73,64,69,62,58,84,70,53,29.70,29.62,6,1,11,0.02
2013-8-7,87,75,68,68,64,60,82,69,51,29.73,29.67,8,2,15,0.00
2013-8-8,91,77,70,69,66,63,83,69,47,29.71,29.65,8,2,14,0.02
2013-8-9,93,81,72,72,68,64,79,66,47,29.66,29.59,9,4,17,0.00
2013-8-10,96,80,70,72,67,64,82,67,45,29.75,29.65,8,2,13,0.02
2013-8-11,91,76,68,72,66,62,83,74,51,29.77,29.66,3,0,11,0.39
2013-8-12,100,80,66,72,66,61,85,66,39,29.70,29.59,7,1,12,0.02
2013-8-13,89,75,69,70,66,63,83,72,51,29.60,29.43,7,2,10,0.05
2013-8-14,86,71,59,64,57,50,79,63,36,29.77,29.48,4,1,8,0.00
2013-8-15,87,65,52,60,52,47,83,65,35,29.83,29.75,3,0,5,0.00
2013-8-16,85,65,50,60,53,45,84,68,38,29.85,29.77,3,0,6,0.00
2013-8-17,78,65,54,62,56,49,85,73,53,29.88,29.82,4,1,8,0.22
2013-8-18,71,64,62,63,58,57,83,80,71,29.88,29.79,4,1,11,0.41
2013-8-19,75,67,63,64,60,57,82,77,67,29.85,29.73,6,1,8,0.08
2013-8-20,93,74,64,70,64,58,83,71,47,29.84,29.75,3,1,5,0.01
2013-8-21,87,72,64,72,63,58,82,75,54,29.87,29.81,4,0,9,0.00
2013-8-22,92,78,68,68,64,59,82,65,42,29.76,29.64,4,1,6,0.02
2013-8-23,91,71,62,69,61,56,81,73,46,29.77,29.61,2,1,6,0.54
2013-8-24,90,70,55,63,57,51,84,65,37,29.96,29.78,3,1,7,0.01
2013-8-25,88,69,55,64,56,49,83,65,39,30.05,29.93,3,1,5,0.00
2013-8-26,91,78,56,64,59,50,81,54,37,29.97,29.72,4,2,8,0.00
2013-8-27,94,77,62,70,63,54,78,63,44,29.72,29.58,5,1,8,0.00
2013-8-28,78,73,68,70,65,61,80,76,66,29.64,29.48,4,1,9,0.00
2013-8-29,93,77,68,70,66,61,82,70,47,29.68,29.49,4,1,10,0.00
2013-8-30,90,75,63,67,62,57,82,67,44,29.73,29.58,5,1,10,0.00
2013-8-31,92,76,66,70,64,58,80,67,48,29.60,29.49,7,2,15,0.00
2013-9-1,94,77,66,71,65,60,81,68,47,29.54,29.44,5,1,11,0.00
2013-9-2,94,79,69,70,65,63,80,64,44,29.51,29.43,5,1,11,0.00
2013-9-3,96,79,68,70,64,60,78,61,37,29.60,29.43,3,1,7,0.00
2013-9-4,88,73,62,63,58,53,77,62,43,29.76,29.60,4,1,9,0.00
2013-9-5,93,74,57,63,57,51,81,58,29,29.77,29.67,5,1,8,0.00
2013-9-6,89,69,55,61,53,48,80,59,32,29.88,29.77,4,1,9,0.12
2013-9-7,87,68,51,62,54,46,83,65,41,29.79,29.61,8,1,11,0.00
2013-9-8,96,75,58,67,60,52,81,61,37,29.65,29.55,4,1,8,0.00
2013-9-9,90,74,65,66,60,56,79,64,42,29.84,29.65,4,1,10,0.00
2013-9-10,96,78,64,70,65,58,81,64,42,29.86,29.77,6,2,11,0.00
2013-9-11,96,81,69,71,65,61,77,59,41,29.83,29.69,6,2,11,0.00
2013-9-12,96,79,68,70,65,59,80,63,43,29.69,29.44,5,2,11,0.00
2013-9-13,89,73,59,62,56,48,76,58,34,29.59,29.41,5,1,9,0.00
2013-9-14,82,62,48,51,46,42,82,59,30,29.81,29.59,6,1,9,0.00
2013-9-15,84,63,44,57,49,39,85,63,39,29.88,29.75,6,1,13,0.00
2013-9-16,81,67,54,62,56,47,77,67,51,29.87,29.73,4,1,8,0.00
2013-9-17,80,60,46,55,48,40,83,67,42,30.02,29.86,5,1,11,0.00
2013-9-18,78,56,39,51,43,34,85,66,30,29.97,29.83,3,0,9,0.00
2013-9-19,80,62,51,57,51,44,80,67,43,29.84,29.72,4,1,8,0.00
2013-9-20,82,66,54,63,56,49,82,71,53,29.74,29.61,4,1,8,0.00
2013-9-21,71,65,61,62,58,54,82,78,70,29.61,29.36,8,2,14,0.00
2013-9-22,81,63,53,60,53,48,83,73,42,29.50,29.39,3,0,8,0.00
2013-9-23,81,61,49,52,47,42,79,62,35,29.73,29.58,4,1,8,0.00
2013-9-24,86,64,49,56,49,43,82,63,35,29.75,29.59,3,1,5,0.00
2013-9-25,78,65,50,57,53,44,82,65,46,29.62,29.53,4,0,9,0.00
2013-9-26,85,65,52,57,51,45,81,64,31,29.71,29.55,4,1,8,0.00
2013-9-27,80,61,46,58,49,41,82,67,42,29.86,29.71,4,1,8,0.00
2013-9-28,73,60,49,55,49,44,83,70,50,29.93,29.84,5,1,10,0.00
2013-9-29,85,62,49,56,49,42,82,64,32,29.84,29.70,4,0,6,0.00
2013-9-30,84,62,46,58,49,41,82,65,36,29.74,29.63,4,0,8,0.00
2013-10-1,93,68,56,61,53,48,76,61,31,29.74,29.65,5,1,7,0.00
2013-10-2,95,71,55,62,54,49,80,60,31,29.76,29.67,5,1,8,0.00
2013-10-3,94,71,55,64,56,48,79,63,35,29.77,29.69,6,1,8,0.00
2013-10-4,99,74,58,64,58,52,80,61,30,29.76,29.69,4,1,6,0.00
2013-10-5,99,84,63,66,62,55,74,49,33,29.76,29.66,4,1,8,0.00
2013-10-6,91,75,63,64,60,55,76,60,34,29.70,29.57,8,2,15,0.00
2013-10-7,71,66,52,63,57,46,79,73,61,29.69,29.46,7,2,13,0.01
2013-10-8,70,56,47,49,44,41,82,67,37,29.89,29.69,5,1,17,0.00
2013-10-9,60,54,50,50,46,43,79,72,65,29.90,29.79,5,2,14,0.00
2013-10-10,61,55,51,53,49,45,82,80,75,29.79,29.61,5,2,12,0.00
2013-10-11,73,62,56,58,53,50,82,72,58,29.63,29.57,4,1,8,0.00
2013-10-12,68,62,59,59,55,52,81,78,71,29.77,29.60,4,1,8,0.00
2013-10-13,65,60,57,56,53,52,83,80,71,29.91,29.76,4,1,11,0.01
2013-10-14,75,59,51,58,51,46,84,77,54,29.94,29.85,4,1,11,0.00
2013-10-15,79,60,45,57,49,40,85,69,37,29.87,29.73,4,1,9,0.00
2013-10-16,76,64,57,59,53,50,78,70,53,29.73,29.59,4,0,8,0.00
2013-10-17,74,65,59,59,55,52,79,72,57,29.59,29.44,8,2,12,0.00
2013-10-18,77,59,43,53,43,37,80,59,26,29.69,29.51,4,1,9,0.00
2013-10-19,61,53,44,52,46,39,82,77,69,29.64,29.44,5,1,11,0.00
2013-10-20,75,54,38,47,37,29,82,58,20,29.75,29.54,4,1,8,0.01
2013-10-21,75,53,34,46,38,29,85,60,29,29.79,29.61,6,1,11,0.00
2013-10-22,76,59,50,48,45,40,74,60,36,29.62,29.44,9,3,20,0.00
2013-10-23,66,50,40,48,40,31,81,69,46,29.60,29.33,5,2,12,0.01
2013-10-24,56,43,30,34,29,23,76,60,35,29.80,29.59,11,2,22,0.00
2013-10-25,67,43,28,34,24,16,78,54,19,29.96,29.80,7,1,11,0.00
2013-10-26,62,44,25,33,25,18,79,52,24,29.96,29.63,14,3,19,0.00
2013-10-27,69,52,37,39,35,28,77,54,31,29.75,29.63,8,2,17,0.00
2013-10-28,75,53,34,46,38,28,82,62,27,29.89,29.74,7,1,15,0.00
2013-10-29,76,58,49,49,44,41,79,62,35,29.99,29.87,6,1,8,0.00
2013-10-30,75,58,50,57,48,42,80,72,53,29.94,29.78,6,1,13,0.00
2013-10-31,72,62,53,56,52,47,81,69,54,29.82,29.47,11,2,19,0.01
2013-11-1,75,67,60,59,56,52,80,67,56,29.47,29.28,17,5,25,0.21
2013-11-2,74,59,46,53,41,28,84,57,20,29.57,29.31,12,2,21,0.00
2013-11-3,71,50,33,40,31,21,76,52,16,30.03,29.57,6,1,11,0.00
2013-11-4,57,40,32,28,24,22,71,54,29,30.22,30.03,8,2,13,0.00
2013-11-5,58,45,33,39,32,23,72,61,42,30.22,30.09,4,1,8,0.00
2013-11-6,77,57,48,52,44,38,76,65,40,30.09,29.74,5,1,10,0.00
2013-11-7,68,55,40,53,42,27,81,64,32,29.74,29.55,11,3,17,0.00
2013-11-8,62,44,29,27,22,17,68,45,20,29.95,29.72,10,2,19,0.00
2013-11-9,60,42,26,30,24,18,76,51,24,29.99,29.74,11,3,17,0.00
2013-11-10,72,52,39,36,26,14,63,40,11,29.89,29.65,17,4,29,0.00
2013-11-11,64,46,27,30,24,18,74,46,21,29.96,29.70,11,2,16,0.00
2013-11-12,50,40,25,34,22,7,65,49,32,30.05,29.61,8,2,17,0.00
2013-11-13,25,23,20,10,9,7,65,54,47,30.05,30.04,2,0,4,0.00
2013-11-14,66,45,27,21,16,10,55,32,16,30.00,29.90,8,4,12,0.00
2013-11-15,62,48,34,42,27,18,82,47,21,29.92,29.82,10,3,14,0.00
2013-11-16,56,52,48,49,47,42,85,83,78,29.92,29.85,2,0,4,0.00
2013-11-17,65,58,53,54,51,49,85,78,68,29.86,29.47,8,2,10,0.01
2013-11-18,69,64,49,57,39,22,78,46,17,29.60,29.39,8,4,10,0.00
2013-11-19,61,46,36,26,24,22,60,44,24,29.97,29.59,4,1,6,0.00
2013-11-20,54,41,33,26,23,21,65,51,27,30.11,29.98,6,2,8,0.00
2013-11-21,59,43,33,41,34,24,77,69,51,30.14,30.02,3,1,5,0.00
2013-11-22,71,57,45,54,46,37,75,68,55,30.02,29.69,11,5,16,0.00
2013-11-23,62,52,35,51,32,10,73,48,20,29.81,29.67,7,3,10,0.00
2013-11-24,45,30,15,12,1,-9,54,29,20,30.14,29.81,8,3,13,0.00
2013-11-25,37,27,14,12,4,1,65,40,22,30.17,29.97,6,2,10,0.00
2013-11-26,39,34,31,36,26,7,88,73,31,29.99,29.24,3,1,8,0.00
2013-11-27,43,38,27,39,31,12,88,76,47,29.69,29.18,5,2,11,0.01
2013-11-28,47,32,20,15,12,8,66,44,23,30.07,29.69,5,2,7,0.00
2013-11-29,55,36,22,26,18,13,69,49,24,30.28,30.06,4,1,8,0.00
2013-11-30,45,31,21,21,16,14,75,58,32,30.29,30.00,1,0,3,0.00
2013-12-1,61,41,21,27,22,15,78,51,24,30.00,29.65,7,3,8,0.00
2013-12-2,64,44,28,36,29,20,77,57,33,29.65,29.48,3,1,5,0.00
2013-12-3,62,46,32,40,36,27,81,68,45,29.62,29.50,4,1,5,0.00
2013-12-4,59,52,42,49,45,38,84,76,67,29.71,29.62,4,1,7,0.00
2013-12-5,64,60,55,56,54,49,85,81,76,29.72,29.62,5,3,9,0.01
2013-12-6,73,62,42,59,53,37,83,75,62,29.71,29.55,9,4,13,0.02
2013-12-7,46,40,34,37,34,25,86,77,67,30.11,29.71,5,3,8,0.00
2013-12-8,34,30,28,27,23,21,83,75,64,30.12,29.91,6,1,8,0.00
2013-12-9,37,34,31,33,29,27,85,83,80,29.90,29.66,8,1,11,0.00
2013-12-10,49,35,28,40,26,15,87,72,45,29.88,29.60,17,3,24,0.02
2013-12-11,51,37,23,22,17,12,65,45,26,30.02,29.86,7,3,14,0.00
2013-12-12,43,33,24,18,8,-4,65,38,21,30.02,29.87,11,2,17,0.00
2013-12-13,51,36,26,20,11,0,53,35,21,29.95,29.86,11,4,17,0.00
2013-12-14,38,35,33,30,26,17,83,69,46,29.91,29.39,6,1,10,0.01
2013-12-15,54,40,31,38,28,21,86,64,35,29.64,29.30,14,4,22,0.00
2013-12-16,51,37,28,30,26,20,77,64,43,29.77,29.62,8,2,11,0.00
2013-12-17,61,38,26,36,29,20,84,71,38,29.73,29.52,10,2,21,0.01
2013-12-18,48,37,28,28,18,11,76,48,24,29.85,29.63,12,3,17,0.00
2013-12-19,67,46,31,27,20,15,56,38,17,29.86,29.77,11,4,19,0.00
2013-12-20,67,52,42,44,35,24,67,52,39,29.81,29.69,14,6,21,0.00
2013-12-21,68,59,51,56,50,41,80,70,59,29.73,29.61,12,5,21,0.00
2013-12-22,70,64,60,59,56,53,82,75,67,29.68,29.57,12,5,24,0.01
2013-12-23,64,56,38,57,49,30,82,78,70,29.81,29.59,10,3,16,0.00
2013-12-24,46,34,20,31,19,5,82,56,26,30.07,29.81,13,2,21,0.00
2013-12-25,43,25,14,15,6,1,73,47,21,30.16,29.98,8,1,10,0.00
2013-12-26,59,34,21,23,15,8,62,48,23,29.99,29.84,11,3,19,0.00
2013-12-27,56,40,25,26,16,12,63,41,20,30.06,29.96,10,2,14,0.00
2013-12-28,61,45,30,31,22,15,62,41,21,29.99,29.79,8,2,13,0.01
2013-12-29,57,45,40,46,38,31,86,77,63,29.79,29.27,16,3,22,0.08
2013-12-30,51,42,34,38,32,25,81,69,50,29.77,29.50,6,2,14,0.00
2013-12-31,54,39,27,32,19,10,82,50,21,29.95,29.75,15,4,28,0.00
2014-1-1,54,37,24,27,18,12,68,50,25,30.00,29.75,9,2,14,0.00
2014-1-2,43,34,30,32,26,20,83,72,61,29.74,29.22,5,1,8,0.01